»·PEaware :: FFT55 KSFO-KLAX

FFT55 :: KSFO-KLAX

FLIGHT INFORMATION

Flight Status: Arrived
Operator:
Frontier Airlines
More flights by this operator :: More flights under this callsign
Pilot: Robert N. (17753)
Aircraft: AIRBUS A321
(A321)
More flights by this aircraft type
Origin: KSFO San Francisco Intl
United States
Destination: KLAX Los Angeles Intl
United States
More flights between these airports :: More routes between these airports
Route: +SSTIK4 EBAYE BURGL IRNMN2
File this flight plan on PilotEdge
Remarks: RMK / SIMBRIEF
Altitude:
(Current/Filed)
33,000ft
Speed:
(Current/Filed)
453kts
Departed: 17-Jul-20 09:13 PM
Arrived: 17-Jul-20 10:06 PM
Distance/Time
Traveled:
293nm/0:53
Distance/Time
To Go:
Arrived

Flight Plot

Page will automatically refresh every two minutes.

Flight plan parsing failed; only flown route is shown


Map Options




Map Legend


Flown Route
Filed Route
Departure Airport
Arrival Airport
Navaid (VOR, NDB)
Fix

Horizontal Profiles

Position Reports

Time Latitude Longitude Heading Altitude Ground
Speed
17-Jul-20 20:44 37.618685 -122.388069 158 22ft 0kts
17-Jul-20 20:45 37.618685 -122.388069 158 22ft 0kts
17-Jul-20 20:46 37.618685 -122.388069 158 22ft 0kts
17-Jul-20 20:47 37.618685 -122.388069 158 22ft 0kts
17-Jul-20 20:48 37.618685 -122.388069 158 22ft 0kts
17-Jul-20 20:48 37.618685 -122.388069 158 22ft 0kts
17-Jul-20 20:50 37.618685 -122.388069 158 22ft 0kts
17-Jul-20 20:50 37.618685 -122.388069 158 22ft 0kts
17-Jul-20 20:51 37.618685 -122.388069 158 22ft 0kts
17-Jul-20 20:53 37.618685 -122.388069 158 22ft 0kts
17-Jul-20 20:53 37.618685 -122.388069 158 22ft 0kts
17-Jul-20 20:54 37.618685 -122.388069 158 22ft 0kts
17-Jul-20 20:55 37.618685 -122.388069 158 22ft 0kts
17-Jul-20 20:56 37.618685 -122.388069 158 22ft 0kts
17-Jul-20 20:57 37.618917 -122.388231 142 22ft 2kts
17-Jul-20 20:58 37.619285 -122.388820 123 22ft 2kts
17-Jul-20 20:59 37.619529 -122.389501 84 22ft 2kts
17-Jul-20 21:00 37.619207 -122.390012 24 22ft 1kts
17-Jul-20 21:01 37.618672 -122.389847 304 22ft 1kts
17-Jul-20 21:02 37.618627 -122.389749 298 22ft 0kts
17-Jul-20 21:03 37.618627 -122.389749 298 22ft 0kts
17-Jul-20 21:04 37.619853 -122.392429 345 22ft 8kts
17-Jul-20 21:05 37.622497 -122.390156 71 22ft 14kts
17-Jul-20 21:06 37.620939 -122.385082 118 22ft 17kts
17-Jul-20 21:07 37.618110 -122.379604 159 22ft 19kts
17-Jul-20 21:08 37.613196 -122.381944 207 22ft 19kts
17-Jul-20 21:09 37.609688 -122.384340 183 22ft 2kts
17-Jul-20 21:10 37.608728 -122.382655 100 22ft 7kts
17-Jul-20 21:11 37.609021 -122.382186 28 22ft 0kts
17-Jul-20 21:12 37.634848 -122.364807 24 872ft 176kts
17-Jul-20 21:13 37.685912 -122.363091 341 3038ft 208kts
17-Jul-20 21:14 37.691102 -122.425747 206 4509ft 254kts
17-Jul-20 21:15 37.618813 -122.443803 190 7207ft 272kts
17-Jul-20 21:16 37.542961 -122.461861 190 9793ft 284kts
17-Jul-20 21:17 37.466450 -122.443752 134 10800ft 320kts
17-Jul-20 21:18 37.401404 -122.354446 133 12264ft 368kts
17-Jul-20 21:19 37.330683 -122.258122 133 14665ft 381kts
17-Jul-20 21:20 37.257761 -122.159451 133 16844ft 393kts
17-Jul-20 21:21 37.182235 -122.057570 132 18859ft 404kts
17-Jul-20 21:22 37.104695 -121.953326 132 20733ft 413kts
17-Jul-20 21:23 37.025671 -121.847372 132 22422ft 422kts
17-Jul-20 21:24 36.944196 -121.738426 134 23680ft 437kts
17-Jul-20 21:25 36.859766 -121.626764 132 25167ft 443kts
17-Jul-20 21:26 36.774435 -121.513787 132 26403ft 452kts
17-Jul-20 21:27 36.688764 -121.400555 132 27989ft 448kts
17-Jul-20 21:28 36.603876 -121.288437 133 29383ft 445kts
17-Jul-20 21:29 36.519056 -121.176841 133 30640ft 443kts
17-Jul-20 21:30 36.434095 -121.065555 132 31685ft 443kts
17-Jul-20 21:31 36.353700 -120.950135 130 32681ft 442kts
17-Jul-20 21:32 36.273081 -120.834549 131 32967ft 442kts
17-Jul-20 21:33 36.192581 -120.719554 131 32964ft 442kts
17-Jul-20 21:34 36.111595 -120.604269 131 32964ft 443kts
17-Jul-20 21:35 36.030691 -120.489498 131 32964ft 444kts
17-Jul-20 21:36 35.949594 -120.374872 131 32968ft 443kts
17-Jul-20 21:37 35.864113 -120.265829 140 32986ft 443kts
17-Jul-20 21:38 35.762771 -120.180622 149 33005ft 442kts
17-Jul-20 21:39 35.657854 -120.101802 148 33010ft 442kts
17-Jul-20 21:40 35.553335 -120.022797 148 33017ft 442kts
17-Jul-20 21:41 35.448796 -119.944186 149 33017ft 441kts
17-Jul-20 21:42 35.343434 -119.865273 149 33006ft 442kts
17-Jul-20 21:43 35.241608 -119.780187 143 33004ft 442kts
17-Jul-20 21:44 35.143480 -119.688409 143 32941ft 442kts
17-Jul-20 21:45 35.044473 -119.596252 143 29673ft 453kts
17-Jul-20 21:46 34.942639 -119.501845 143 26286ft 460kts
17-Jul-20 21:47 34.842194 -119.411061 144 24881ft 442kts
17-Jul-20 21:48 34.744340 -119.323774 144 23458ft 419kts
17-Jul-20 21:49 34.652041 -119.242980 145 21706ft 398kts
17-Jul-20 21:50 34.564208 -119.167247 145 20033ft 378kts
17-Jul-20 21:51 34.481206 -119.093785 144 18411ft 362kts
17-Jul-20 21:52 34.401361 -119.023825 145 16816ft 348kts
17-Jul-20 21:53 34.324077 -118.956435 144 15245ft 337kts
17-Jul-20 21:54 34.252847 -118.891585 144 13756ft 327kts
17-Jul-20 21:55 34.180166 -118.824772 144 12818ft 293kts
17-Jul-20 21:56 34.120428 -118.762396 139 11712ft 280kts
17-Jul-20 21:57 34.062784 -118.699808 139 10415ft 274kts
17-Jul-20 21:58 34.025427 -118.625634 97 9330ft 268kts
17-Jul-20 21:59 34.017711 -118.537314 97 8117ft 262kts
17-Jul-20 22:00 34.011585 -118.451657 85 7365ft 254kts
17-Jul-20 22:01 34.025637 -118.367742 79 5699ft 262kts
17-Jul-20 22:02 33.988409 -118.308501 170 3030ft 259kts
17-Jul-20 22:03 33.946258 -118.331785 298 1286ft 220kts
17-Jul-20 22:04 33.951364 -118.389768 264 300ft 139kts
17-Jul-20 22:05 33.948205 -118.418469 239 134ft 29kts
17-Jul-20 22:06 33.947403 -118.416540 81 134ft 13kts
17-Jul-20 22:07 33.948060 -118.411706 81 134ft 14kts
17-Jul-20 22:08 33.948499 -118.407461 83 134ft 11kts
17-Jul-20 22:09 33.947333 -118.405068 134 134ft 8kts
17-Jul-20 22:10 33.947146 -118.404832 133 134ft 0kts
17-Jul-20 22:11 33.947146 -118.404832 133 134ft 0kts

Navigation Log

Ident Type
Flight plan parsing failed, navigation log unavailable